Time;durP1;ratioP1;P1;durP2;ratioP2;P2;SDS_P1;SDS_P2;PMS_P1;PMS_P2;Temp;Humidity;BMP_temperature;BMP_pressure;BME280_temperature;BME280_humidity;BME280_pressure;Samples;Min_cycle;Max_cycle;Signal;HPM_P1;HPM_P2
2024/01/20 00:00:14;;;;;;;77.28;42.00;;;;;;;;;;4992102;28;20114;-76
2024/01/20 00:02:40;;;;;;;73.10;36.28;;;;;;;;;;5007543;28;20257;-75
2024/01/20 00:05:06;;;;;;;75.60;41.45;;;;;;;;;;5003548;28;20037;-76
2024/01/20 00:07:33;;;;;;;77.60;42.58;;;;;;;;;;4994913;28;20033;-76
2024/01/20 00:09:59;;;;;;;82.05;42.47;;;;;;;;;;5003537;28;20076;-75
2024/01/20 00:12:26;;;;;;;79.15;42.75;;;;;;;;;;5009157;28;20438;-78
2024/01/20 00:14:53;;;;;;;78.15;41.78;;;;;;;;;;5021980;28;20399;-76
2024/01/20 00:17:19;;;;;;;80.60;42.30;;;;;;;;;;4998861;28;20515;-75
2024/01/20 00:19:45;;;;;;;80.50;41.38;;;;;;;;;;5013353;28;20475;-77
2024/01/20 00:22:11;;;;;;;85.63;41.47;;;;;;;;;;5017089;28;20037;-76
2024/01/20 00:24:38;;;;;;;81.88;41.40;;;;;;;;;;5007323;28;20181;-76
2024/01/20 00:27:04;;;;;;;83.72;41.05;;;;;;;;;;5009453;28;20269;-76
2024/01/20 00:29:30;;;;;;;83.10;41.42;;;;;;;;;;5011200;28;20030;-76
2024/01/20 00:31:57;;;;;;;82.22;40.63;;;;;;;;;;5023708;28;20064;-76
2024/01/20 00:34:23;;;;;;;77.03;40.28;;;;;;;;;;5015402;28;20372;-77
2024/01/20 00:36:49;;;;;;;88.63;42.00;;;;;;;;;;5012151;28;20289;-76
2024/01/20 00:39:15;;;;;;;81.93;38.92;;;;;;;;;;5017913;28;20372;-77
2024/01/20 00:41:42;;;;;;;79.35;38.92;;;;;;;;;;5013326;28;20035;-75
2024/01/20 00:44:08;;;;;;;93.32;43.47;;;;;;;;;;5012743;28;20097;-76
2024/01/20 00:46:35;;;;;;;84.78;38.95;;;;;;;;;;5019745;28;20519;-76
2024/01/20 00:49:01;;;;;;;79.55;38.75;;;;;;;;;;5009410;28;20035;-76
2024/01/20 00:51:27;;;;;;;87.50;40.53;;;;;;;;;;5021135;28;20664;-76
2024/01/20 00:53:53;;;;;;;78.40;37.35;;;;;;;;;;5016717;28;20117;-77
2024/01/20 00:56:19;;;;;;;73.97;37.15;;;;;;;;;;5013435;28;20029;-77
2024/01/20 00:58:45;;;;;;;83.97;38.58;;;;;;;;;;5012763;28;20041;-74
2024/01/20 01:01:11;;;;;;;89.07;37.80;;;;;;;;;;4998375;28;20030;-74
2024/01/20 01:03:38;;;;;;;82.30;36.88;;;;;;;;;;5014130;28;20152;-76
2024/01/20 01:06:04;;;;;;;83.63;35.58;;;;;;;;;;5025324;28;20033;-76
2024/01/20 01:08:30;;;;;;;84.35;35.30;;;;;;;;;;5020506;28;20037;-78
2024/01/20 01:10:56;;;;;;;80.00;35.78;;;;;;;;;;5011360;28;20503;-75
2024/01/20 01:13:24;;;;;;;78.50;34.03;;;;;;;;;;5016633;28;20431;-76
2024/01/20 01:15:50;;;;;;;87.13;36.28;;;;;;;;;;5015434;28;20038;-78
2024/01/20 01:18:16;;;;;;;95.55;38.78;;;;;;;;;;5010229;28;20113;-76
2024/01/20 01:20:42;;;;;;;96.10;37.55;;;;;;;;;;5021296;28;20081;-75
2024/01/20 01:23:09;;;;;;;83.90;35.97;;;;;;;;;;5015378;28;20022;-75
2024/01/20 01:25:35;;;;;;;90.68;37.28;;;;;;;;;;5043498;28;20398;-77
2024/01/20 01:28:01;;;;;;;90.07;36.97;;;;;;;;;;5017797;28;20030;-73
2024/01/20 01:30:27;;;;;;;94.95;40.28;;;;;;;;;;5028005;28;20048;-74
2024/01/20 01:32:54;;;;;;;86.05;36.33;;;;;;;;;;5012226;28;20038;-74
2024/01/20 01:35:20;;;;;;;89.50;37.30;;;;;;;;;;5023664;28;20067;-75
2024/01/20 01:37:46;;;;;;;93.43;36.47;;;;;;;;;;5013264;28;20072;-77
2024/01/20 01:40:13;;;;;;;91.43;36.92;;;;;;;;;;5039342;28;20497;-76
2024/01/20 01:42:39;;;;;;;88.57;37.67;;;;;;;;;;5011327;28;20030;-77
2024/01/20 01:45:05;;;;;;;94.70;37.97;;;;;;;;;;5015102;28;20104;-76
2024/01/20 01:47:32;;;;;;;96.05;38.70;;;;;;;;;;5022859;28;20084;-75
2024/01/20 01:49:59;;;;;;;92.55;39.33;;;;;;;;;;5019528;28;20083;-75
2024/01/20 01:52:26;;;;;;;97.70;38.03;;;;;;;;;;5008328;28;20446;-74
2024/01/20 01:54:53;;;;;;;94.70;38.42;;;;;;;;;;5012433;28;20033;-74
2024/01/20 01:57:19;;;;;;;92.35;38.05;;;;;;;;;;5005612;28;20030;-76
2024/01/20 01:59:46;;;;;;;84.55;36.85;;;;;;;;;;5008257;28;20033;-77
2024/01/20 02:02:12;;;;;;;102.00;39.25;;;;;;;;;;5009626;28;20455;-77
2024/01/20 02:04:38;;;;;;;99.55;37.53;;;;;;;;;;5022228;28;20029;-75
2024/01/20 02:07:05;;;;;;;104.18;41.47;;;;;;;;;;5019135;28;20025;-76
2024/01/20 02:09:32;;;;;;;95.22;37.53;;;;;;;;;;5013352;28;20026;-74
2024/01/20 02:11:59;;;;;;;109.50;39.80;;;;;;;;;;5009972;28;20021;-75
2024/01/20 02:14:25;;;;;;;97.90;40.35;;;;;;;;;;5012268;28;20029;-77
2024/01/20 02:16:52;;;;;;;116.55;40.90;;;;;;;;;;4994768;28;20522;-76
2024/01/20 02:19:18;;;;;;;107.03;41.53;;;;;;;;;;5009425;28;20045;-76
2024/01/20 02:21:45;;;;;;;108.30;41.40;;;;;;;;;;5011616;28;20034;-75
2024/01/20 02:24:12;;;;;;;105.43;39.83;;;;;;;;;;5008090;28;20038;-76
2024/01/20 02:26:38;;;;;;;105.00;39.53;;;;;;;;;;5007900;28;20036;-75
2024/01/20 02:29:04;;;;;;;111.75;41.42;;;;;;;;;;5006701;28;20088;-76
2024/01/20 02:31:31;;;;;;;108.55;40.28;;;;;;;;;;5008147;28;20037;-76
2024/01/20 02:33:57;;;;;;;112.88;44.92;;;;;;;;;;5005431;28;20036;-75
2024/01/20 02:36:23;;;;;;;109.32;40.88;;;;;;;;;;5009451;28;20038;-76
2024/01/20 02:38:49;;;;;;;112.75;43.03;;;;;;;;;;5006024;28;20044;-74
2024/01/20 02:41:15;;;;;;;111.30;44.05;;;;;;;;;;5007896;28;20061;-76
2024/01/20 02:43:41;;;;;;;105.68;42.13;;;;;;;;;;5007838;28;20061;-75
2024/01/20 02:46:07;;;;;;;115.40;41.53;;;;;;;;;;5008168;28;20112;-75
2024/01/20 02:48:33;;;;;;;108.80;43.95;;;;;;;;;;4991668;28;20034;-74
2024/01/20 02:50:59;;;;;;;128.65;46.60;;;;;;;;;;5007408;28;20026;-74
2024/01/20 02:53:28;;;;;;;121.82;46.50;;;;;;;;;;5006833;28;20096;-76
2024/01/20 02:55:54;;;;;;;110.53;41.97;;;;;;;;;;5006000;28;20026;-75
2024/01/20 02:58:20;;;;;;;110.57;40.50;;;;;;;;;;5007013;28;20068;-74
2024/01/20 03:00:46;;;;;;;103.80;40.67;;;;;;;;;;5012357;28;20037;-75
2024/01/20 03:03:12;;;;;;;113.45;41.38;;;;;;;;;;5008085;28;20395;-76
2024/01/20 03:05:38;;;;;;;123.45;42.58;;;;;;;;;;5011282;28;20034;-75
2024/01/20 03:08:05;;;;;;;109.53;41.97;;;;;;;;;;5008734;28;20505;-76
2024/01/20 03:10:31;;;;;;;115.03;41.33;;;;;;;;;;5005242;28;20038;-76
2024/01/20 03:12:57;;;;;;;114.03;43.17;;;;;;;;;;4987923;28;20069;-76
2024/01/20 03:15:24;;;;;;;112.18;41.33;;;;;;;;;;4992988;28;20401;-77
2024/01/20 03:17:50;;;;;;;104.57;40.13;;;;;;;;;;5010939;28;20030;-76
2024/01/20 03:20:16;;;;;;;113.88;42.60;;;;;;;;;;5007989;28;20042;-79
2024/01/20 03:22:42;;;;;;;108.97;40.13;;;;;;;;;;5011699;28;20045;-75
2024/01/20 03:25:08;;;;;;;103.22;37.92;;;;;;;;;;5007329;28;20050;-76
2024/01/20 03:27:35;;;;;;;107.15;40.55;;;;;;;;;;5008732;28;20136;-76
2024/01/20 03:30:01;;;;;;;104.30;41.83;;;;;;;;;;5009451;28;20057;-75
2024/01/20 03:32:27;;;;;;;100.75;38.67;;;;;;;;;;5006408;28;20038;-76
2024/01/20 03:34:53;;;;;;;97.78;39.17;;;;;;;;;;5006652;28;20041;-77
2024/01/20 03:37:19;;;;;;;95.60;38.78;;;;;;;;;;5009118;28;20034;-75
2024/01/20 03:39:45;;;;;;;98.70;38.63;;;;;;;;;;5011920;28;20030;-75
2024/01/20 03:42:11;;;;;;;95.38;38.72;;;;;;;;;;5006843;28;20022;-76
2024/01/20 03:44:37;;;;;;;103.80;38.45;;;;;;;;;;5007590;28;20030;-75
2024/01/20 03:47:04;;;;;;;102.38;39.55;;;;;;;;;;4992983;28;20041;-74
2024/01/20 03:49:30;;;;;;;102.10;37.90;;;;;;;;;;5006861;28;20038;-76
2024/01/20 03:51:56;;;;;;;96.93;38.20;;;;;;;;;;5007665;28;20033;-75
2024/01/20 03:54:22;;;;;;;94.72;35.95;;;;;;;;;;5006347;28;20065;-76
2024/01/20 03:56:48;;;;;;;98.30;37.78;;;;;;;;;;5006627;28;20206;-76
2024/01/20 03:59:15;;;;;;;105.50;39.13;;;;;;;;;;5012648;28;20033;-76
2024/01/20 04:01:41;;;;;;;104.45;37.22;;;;;;;;;;5011714;28;20022;-77
2024/01/20 04:04:07;;;;;;;97.85;36.72;;;;;;;;;;5015771;28;20081;-75
2024/01/20 04:06:33;;;;;;;100.25;37.00;;;;;;;;;;5008133;28;20029;-77
2024/01/20 04:08:59;;;;;;;93.63;35.22;;;;;;;;;;5008169;28;20660;-75
2024/01/20 04:11:26;;;;;;;97.53;35.15;;;;;;;;;;5008182;28;20045;-76
2024/01/20 04:13:52;;;;;;;92.05;35.05;;;;;;;;;;5004952;28;20562;-77
2024/01/20 04:16:18;;;;;;;90.43;34.58;;;;;;;;;;5008948;28;20105;-74
2024/01/20 04:18:44;;;;;;;101.32;35.22;;;;;;;;;;5008571;28;20109;-75
2024/01/20 04:21:10;;;;;;;97.63;33.83;;;;;;;;;;4993608;28;20025;-76
2024/01/20 04:23:36;;;;;;;89.32;33.47;;;;;;;;;;4999587;28;20117;-76
2024/01/20 04:26:03;;;;;;;87.45;33.58;;;;;;;;;;4991538;28;20069;-75
2024/01/20 04:28:29;;;;;;;89.45;33.40;;;;;;;;;;4999536;28;20031;-76
2024/01/20 04:30:55;;;;;;;91.50;34.15;;;;;;;;;;5011784;28;20046;-76
2024/01/20 04:33:21;;;;;;;84.18;31.45;;;;;;;;;;4997931;28;20034;-76
2024/01/20 04:35:47;;;;;;;81.03;32.80;;;;;;;;;;5005651;28;20421;-76
2024/01/20 04:38:13;;;;;;;87.07;33.90;;;;;;;;;;5007698;28;20034;-76
2024/01/20 04:40:41;;;;;;;91.47;32.65;;;;;;;;;;5011198;28;20033;-74
2024/01/20 04:43:07;;;;;;;98.55;35.17;;;;;;;;;;5001732;28;20038;-76
2024/01/20 04:45:33;;;;;;;84.13;33.42;;;;;;;;;;5007191;28;20511;-77
2024/01/20 04:48:01;;;;;;;96.93;34.53;;;;;;;;;;5018082;28;20029;-75
2024/01/20 04:50:27;;;;;;;88.35;33.70;;;;;;;;;;5012764;28;20127;-76
2024/01/20 04:52:54;;;;;;;89.00;33.42;;;;;;;;;;5000933;28;20069;-75
2024/01/20 04:55:20;;;;;;;88.38;33.92;;;;;;;;;;5009117;28;20034;-75
2024/01/20 04:57:46;;;;;;;89.15;34.30;;;;;;;;;;5007431;28;20030;-76
2024/01/20 05:00:14;;;;;;;99.85;35.28;;;;;;;;;;5011624;28;20026;-77
2024/01/20 05:02:41;;;;;;;112.45;38.78;;;;;;;;;;5018436;28;20062;-77
2024/01/20 05:05:07;;;;;;;111.32;37.97;;;;;;;;;;5007668;28;20034;-75
2024/01/20 05:07:34;;;;;;;128.13;39.88;;;;;;;;;;5010413;28;20042;-75
2024/01/20 05:10:01;;;;;;;121.20;40.75;;;;;;;;;;5014471;28;20030;-76
2024/01/20 05:12:28;;;;;;;119.15;41.20;;;;;;;;;;5016333;28;20133;-74
2024/01/20 05:14:54;;;;;;;121.90;38.92;;;;;;;;;;5008169;28;20715;-75
2024/01/20 05:17:22;;;;;;;131.82;40.67;;;;;;;;;;5014933;28;20034;-74
2024/01/20 05:19:48;;;;;;;125.90;42.72;;;;;;;;;;5013922;28;20034;-74
2024/01/20 05:22:16;;;;;;;117.00;37.22;;;;;;;;;;5013524;28;20533;-76
2024/01/20 05:24:43;;;;;;;108.05;37.40;;;;;;;;;;5009477;28;20041;-77
2024/01/20 05:27:10;;;;;;;122.30;41.03;;;;;;;;;;5018494;28;20053;-75
2024/01/20 05:29:36;;;;;;;133.35;44.05;;;;;;;;;;5010514;28;20038;-75
2024/01/20 05:32:03;;;;;;;136.00;41.58;;;;;;;;;;5019243;28;20034;-75
2024/01/20 05:34:29;;;;;;;138.77;42.50;;;;;;;;;;4995529;28;20349;-75
2024/01/20 05:36:55;;;;;;;132.68;39.58;;;;;;;;;;5002775;28;20026;-74
2024/01/20 05:39:22;;;;;;;118.88;40.17;;;;;;;;;;5004203;28;20085;-74
2024/01/20 05:41:48;;;;;;;117.97;38.80;;;;;;;;;;5004444;28;20026;-76
2024/01/20 05:44:14;;;;;;;121.50;38.95;;;;;;;;;;5012145;28;20056;-76
2024/01/20 05:46:41;;;;;;;135.30;39.63;;;;;;;;;;5020019;28;20061;-76
2024/01/20 05:49:08;;;;;;;113.63;35.38;;;;;;;;;;5002952;28;20192;-75
2024/01/20 05:51:34;;;;;;;139.63;41.20;;;;;;;;;;5006337;28;20123;-75
2024/01/20 05:54:00;;;;;;;116.47;40.45;;;;;;;;;;5013325;28;20048;-76
2024/01/20 05:56:26;;;;;;;130.35;42.33;;;;;;;;;;5017300;28;20041;-75
2024/01/20 05:58:52;;;;;;;122.78;39.90;;;;;;;;;;4994267;28;20038;-75
2024/01/20 06:01:19;;;;;;;111.15;37.22;;;;;;;;;;5013825;28;20052;-76
2024/01/20 06:03:45;;;;;;;104.45;37.05;;;;;;;;;;5012366;28;20104;-75
2024/01/20 06:06:12;;;;;;;98.15;35.90;;;;;;;;;;4999337;28;20479;-75
2024/01/20 06:08:38;;;;;;;93.78;35.28;;;;;;;;;;5008643;28;20026;-77
2024/01/20 06:11:04;;;;;;;103.28;36.67;;;;;;;;;;5021703;28;20032;-76
2024/01/20 06:13:30;;;;;;;94.78;34.60;;;;;;;;;;5004449;28;20058;-77
2024/01/20 06:15:56;;;;;;;94.63;35.83;;;;;;;;;;5011694;28;20034;-76
2024/01/20 06:18:27;;;;;;;88.78;34.10;;;;;;;;;;5007964;28;20049;-76
2024/01/20 06:20:57;;;;;;;71.78;25.48;;;;;;;;;;5012576;28;20033;-75
2024/01/20 06:23:23;;;;;;;98.30;35.88;;;;;;;;;;4998963;28;20034;-78
2024/01/20 06:25:50;;;;;;;109.65;37.20;;;;;;;;;;5011598;28;20030;-75
2024/01/20 06:28:17;;;;;;;104.55;36.58;;;;;;;;;;5009091;28;20112;-75
2024/01/20 06:30:46;;;;;;;103.30;35.08;;;;;;;;;;5007925;28;20121;-75
2024/01/20 06:33:13;;;;;;;99.10;34.35;;;;;;;;;;5004834;28;20870;-76
2024/01/20 06:35:39;;;;;;;95.13;35.67;;;;;;;;;;5017873;28;20117;-75
2024/01/20 06:38:06;;;;;;;91.30;34.10;;;;;;;;;;5030651;28;20075;-77
2024/01/20 06:40:32;;;;;;;88.70;33.65;;;;;;;;;;5016783;28;20029;-78
2024/01/20 06:42:59;;;;;;;82.35;32.53;;;;;;;;;;5007805;28;20096;-76
2024/01/20 06:45:25;;;;;;;81.55;29.60;;;;;;;;;;5006131;28;20457;-78
2024/01/20 06:47:52;;;;;;;94.40;32.40;;;;;;;;;;5028308;28;20056;-76
2024/01/20 06:50:18;;;;;;;89.95;33.05;;;;;;;;;;5003314;28;20442;-77
2024/01/20 06:52:44;;;;;;;88.72;32.65;;;;;;;;;;4993605;28;20084;-76
2024/01/20 06:55:11;;;;;;;80.03;31.77;;;;;;;;;;4999733;28;20029;-77
2024/01/20 06:57:38;;;;;;;85.85;32.72;;;;;;;;;;5014384;28;20042;-77
2024/01/20 07:00:07;;;;;;;79.88;31.00;;;;;;;;;;5000556;28;20026;-77
2024/01/20 07:02:33;;;;;;;79.85;30.15;;;;;;;;;;4997132;28;20041;-76
2024/01/20 07:05:01;;;;;;;92.95;32.58;;;;;;;;;;4996774;28;20045;-77
2024/01/20 07:07:27;;;;;;;93.63;31.95;;;;;;;;;;5000264;28;20065;-77
2024/01/20 07:09:53;;;;;;;82.30;31.10;;;;;;;;;;4998905;28;20042;-75
2024/01/20 07:12:21;;;;;;;83.93;31.45;;;;;;;;;;5018610;28;20048;-77
2024/01/20 07:14:47;;;;;;;78.50;29.33;;;;;;;;;;5022924;28;20068;-77
2024/01/20 07:17:14;;;;;;;75.03;29.10;;;;;;;;;;5016265;28;20042;-77
2024/01/20 07:19:40;;;;;;;81.43;31.20;;;;;;;;;;5012416;28;20037;-78
2024/01/20 07:22:06;;;;;;;86.95;32.15;;;;;;;;;;4997734;28;20022;-76
2024/01/20 07:24:32;;;;;;;79.20;29.35;;;;;;;;;;5008339;28;20033;-76
2024/01/20 07:26:58;;;;;;;82.43;31.25;;;;;;;;;;5016196;28;20043;-76
2024/01/20 07:29:25;;;;;;;81.97;28.40;;;;;;;;;;4991323;28;20120;-77
2024/01/20 07:31:51;;;;;;;73.30;28.23;;;;;;;;;;5000674;28;20035;-76
2024/01/20 07:34:17;;;;;;;82.72;28.90;;;;;;;;;;5005580;28;20062;-77
2024/01/20 07:36:43;;;;;;;91.65;31.60;;;;;;;;;;5003783;28;20038;-77
2024/01/20 07:39:10;;;;;;;85.90;30.65;;;;;;;;;;5024787;28;20033;-78
2024/01/20 07:41:36;;;;;;;73.15;29.00;;;;;;;;;;4997443;28;20025;-77
2024/01/20 07:44:02;;;;;;;79.07;30.20;;;;;;;;;;5002767;28;20359;-78
2024/01/20 07:46:28;;;;;;;82.97;29.25;;;;;;;;;;5000375;28;20042;-79
2024/01/20 07:48:54;;;;;;;78.40;29.73;;;;;;;;;;4999953;28;20081;-77
2024/01/20 07:51:20;;;;;;;86.57;32.60;;;;;;;;;;5005999;28;20053;-76
2024/01/20 07:53:47;;;;;;;81.45;30.75;;;;;;;;;;5006072;28;20037;-78
2024/01/20 07:56:15;;;;;;;88.43;30.63;;;;;;;;;;4990096;28;20034;-79
2024/01/20 07:58:42;;;;;;;88.20;31.52;;;;;;;;;;4992787;28;20074;-78
2024/01/20 08:01:09;;;;;;;83.38;29.95;;;;;;;;;;5000200;28;20080;-77
2024/01/20 08:03:35;;;;;;;81.43;29.65;;;;;;;;;;4989577;28;20415;-77
2024/01/20 08:06:01;;;;;;;81.60;30.40;;;;;;;;;;4998826;28;20034;-78
2024/01/20 08:08:27;;;;;;;83.00;30.85;;;;;;;;;;5003415;28;20053;-77
2024/01/20 08:10:53;;;;;;;80.75;30.92;;;;;;;;;;4997415;28;20892;-76
2024/01/20 08:13:21;;;;;;;80.40;29.73;;;;;;;;;;5002451;28;20038;-75
2024/01/20 08:15:47;;;;;;;82.93;32.15;;;;;;;;;;5004225;28;20050;-78
2024/01/20 08:18:13;;;;;;;84.25;31.45;;;;;;;;;;5008696;28;20046;-77
2024/01/20 08:20:39;;;;;;;94.80;31.98;;;;;;;;;;5009277;28;20061;-77
2024/01/20 08:23:05;;;;;;;87.78;31.88;;;;;;;;;;4995433;28;20041;-76
2024/01/20 08:25:31;;;;;;;98.68;33.70;;;;;;;;;;4997641;28;20036;-76
2024/01/20 08:27:57;;;;;;;123.63;38.80;;;;;;;;;;5002890;28;20053;-77
2024/01/20 08:30:24;;;;;;;139.80;43.78;;;;;;;;;;4990181;28;20041;-76
2024/01/20 08:32:50;;;;;;;109.57;36.58;;;;;;;;;;4988700;28;20089;-78
2024/01/20 08:35:16;;;;;;;103.03;36.28;;;;;;;;;;4986884;28;20030;-76
2024/01/20 08:37:42;;;;;;;95.28;33.28;;;;;;;;;;4988340;28;20030;-77
2024/01/20 08:40:08;;;;;;;113.65;37.88;;;;;;;;;;4965201;28;20030;-77
2024/01/20 08:42:34;;;;;;;91.68;35.65;;;;;;;;;;4978740;28;20038;-75
2024/01/20 08:45:01;;;;;;;93.70;34.97;;;;;;;;;;4980112;28;20045;-79
2024/01/20 08:47:27;;;;;;;90.80;32.72;;;;;;;;;;4971071;28;20045;-77
2024/01/20 08:49:53;;;;;;;84.75;34.42;;;;;;;;;;4988362;28;20417;-78
2024/01/20 08:52:20;;;;;;;95.15;36.78;;;;;;;;;;4976591;28;20014;-78
2024/01/20 08:54:46;;;;;;;94.15;36.42;;;;;;;;;;4986669;28;20038;-76
2024/01/20 08:57:13;;;;;;;88.28;32.38;;;;;;;;;;4981089;28;20355;-77
2024/01/20 08:59:39;;;;;;;95.00;34.38;;;;;;;;;;4985129;28;20042;-78
2024/01/20 09:02:06;;;;;;;98.97;35.28;;;;;;;;;;4981989;28;20369;-77
2024/01/20 09:04:32;;;;;;;93.85;35.55;;;;;;;;;;4972279;28;20026;-77
2024/01/20 09:06:58;;;;;;;95.15;34.97;;;;;;;;;;4983015;28;20117;-78
2024/01/20 09:09:24;;;;;;;97.03;36.58;;;;;;;;;;4988181;28;20046;-77
2024/01/20 09:11:50;;;;;;;86.10;33.83;;;;;;;;;;4977913;28;20055;-78
2024/01/20 09:14:16;;;;;;;80.93;33.25;;;;;;;;;;4989686;28;20037;-77
2024/01/20 09:16:43;;;;;;;85.97;35.13;;;;;;;;;;4972519;28;20403;-78
2024/01/20 09:19:09;;;;;;;88.18;33.90;;;;;;;;;;4984193;28;20034;-79
2024/01/20 09:21:36;;;;;;;97.03;35.67;;;;;;;;;;4992838;28;20324;-77
2024/01/20 09:24:02;;;;;;;90.78;34.75;;;;;;;;;;4984020;28;20042;-76
2024/01/20 09:26:29;;;;;;;81.03;32.75;;;;;;;;;;4979817;28;20039;-77
2024/01/20 09:28:55;;;;;;;75.35;31.70;;;;;;;;;;4978458;28;20061;-78
2024/01/20 09:31:21;;;;;;;90.90;34.85;;;;;;;;;;4982849;28;20125;-76
2024/01/20 09:33:48;;;;;;;114.85;39.67;;;;;;;;;;4988832;28;20050;-78
2024/01/20 09:36:14;;;;;;;87.47;34.60;;;;;;;;;;4987813;28;20027;-78
2024/01/20 09:38:40;;;;;;;85.10;34.25;;;;;;;;;;4988414;28;20030;-76
2024/01/20 09:41:09;;;;;;;94.13;40.20;;;;;;;;;;4994919;28;20044;-79
2024/01/20 09:43:38;;;;;;;79.15;31.42;;;;;;;;;;4994597;28;20034;-78
2024/01/20 09:46:04;;;;;;;81.65;33.38;;;;;;;;;;4990217;28;20121;-77
2024/01/20 09:48:30;;;;;;;75.80;31.73;;;;;;;;;;4989786;28;20118;-77
2024/01/20 09:50:58;;;;;;;84.90;32.72;;;;;;;;;;4982065;28;20039;-76
2024/01/20 09:53:25;;;;;;;73.88;33.40;;;;;;;;;;4984583;28;20038;-79
2024/01/20 09:55:51;;;;;;;89.00;33.38;;;;;;;;;;4972137;28;20101;-77
2024/01/20 09:58:18;;;;;;;70.25;31.52;;;;;;;;;;4979956;28;20384;-77
2024/01/20 10:00:44;;;;;;;75.45;32.10;;;;;;;;;;4987813;28;20042;-77
2024/01/20 10:03:12;;;;;;;61.35;28.08;;;;;;;;;;4984365;28;20026;-77
2024/01/20 10:05:38;;;;;;;57.55;25.27;;;;;;;;;;4988180;28;20038;-82
2024/01/20 10:08:06;;;;;;;62.33;28.05;;;;;;;;;;4977467;28;20030;-76
2024/01/20 10:10:32;;;;;;;64.20;27.17;;;;;;;;;;4983643;28;20440;-77
2024/01/20 10:13:02;;;;;;;57.55;26.38;;;;;;;;;;4981010;28;20054;-79
2024/01/20 10:15:30;;;;;;;64.45;27.83;;;;;;;;;;4991132;28;20125;-78
2024/01/20 10:17:57;;;;;;;55.95;26.92;;;;;;;;;;4980838;28;20053;-77
2024/01/20 10:20:31;;;;;;;65.90;28.02;;;;;;;;;;4970543;28;20034;-76
2024/01/20 10:23:00;;;;;;;58.10;28.73;;;;;;;;;;4986009;28;20515;-78
2024/01/20 10:25:26;;;;;;;59.33;27.10;;;;;;;;;;4987434;28;20348;-76
2024/01/20 10:27:52;;;;;;;62.88;27.63;;;;;;;;;;4973446;28;20042;-77
2024/01/20 10:30:23;;;;;;;53.75;24.88;;;;;;;;;;4981015;28;20038;-79
2024/01/20 10:32:49;;;;;;;57.17;25.25;;;;;;;;;;4979278;28;20113;-77
2024/01/20 10:35:15;;;;;;;58.60;28.42;;;;;;;;;;4980395;28;20050;-78
2024/01/20 10:37:44;;;;;;;61.35;27.95;;;;;;;;;;4983778;28;20026;-76
2024/01/20 10:40:12;;;;;;;56.90;28.42;;;;;;;;;;4971922;28;20053;-78
2024/01/20 10:42:45;;;;;;;59.72;28.23;;;;;;;;;;4980778;28;20030;-77
2024/01/20 10:45:18;;;;;;;69.13;30.67;;;;;;;;;;4983415;28;20034;-80
2024/01/20 10:47:57;;;;;;;51.83;25.65;;;;;;;;;;4983805;28;20296;-78
2024/01/20 10:50:24;;;;;;;54.85;25.92;;;;;;;;;;4973431;28;20105;-77
2024/01/20 10:52:51;;;;;;;56.92;26.88;;;;;;;;;;4988735;28;20045;-77
2024/01/20 10:55:18;;;;;;;60.97;27.85;;;;;;;;;;4985285;28;20022;-77
2024/01/20 10:57:44;;;;;;;54.88;26.88;;;;;;;;;;4987783;28;20034;-77
2024/01/20 11:00:11;;;;;;;54.60;25.63;;;;;;;;;;4987857;28;20182;-77
2024/01/20 11:02:37;;;;;;;56.67;27.65;;;;;;;;;;4982309;28;20045;-79
2024/01/20 11:05:17;;;;;;;55.72;26.00;;;;;;;;;;4979356;28;20019;-81
2024/01/20 11:07:43;;;;;;;58.17;26.25;;;;;;;;;;4983356;28;20030;-77
2024/01/20 11:10:09;;;;;;;53.78;26.17;;;;;;;;;;4984207;28;20035;-78
2024/01/20 11:12:36;;;;;;;56.13;25.75;;;;;;;;;;4977117;28;20031;-77
2024/01/20 11:15:03;;;;;;;54.25;25.80;;;;;;;;;;4973579;28;20052;-77
2024/01/20 11:17:29;;;;;;;52.80;25.95;;;;;;;;;;4986554;28;20074;-81
2024/01/20 11:20:05;;;;;;;52.95;26.33;;;;;;;;;;4989869;28;20043;-78
2024/01/20 11:22:35;;;;;;;42.83;21.60;;;;;;;;;;4987205;28;21317;-79
2024/01/20 11:25:07;;;;;;;53.22;25.58;;;;;;;;;;4982371;28;20031;-77
2024/01/20 11:27:47;;;;;;;46.22;23.25;;;;;;;;;;4987327;28;20645;-79
2024/01/20 11:30:13;;;;;;;50.50;24.88;;;;;;;;;;4989210;28;20093;-75
2024/01/20 11:32:39;;;;;;;48.63;22.98;;;;;;;;;;4973947;28;20420;-78
2024/01/20 11:35:06;;;;;;;52.60;25.00;;;;;;;;;;4997885;28;20027;-78
2024/01/20 11:37:33;;;;;;;47.60;23.88;;;;;;;;;;4982538;28;20111;-78
2024/01/20 11:40:17;;;;;;;50.33;23.63;;;;;;;;;;4981685;28;20050;-77
2024/01/20 11:42:43;;;;;;;52.40;25.27;;;;;;;;;;4980980;28;20043;-77
2024/01/20 11:45:10;;;;;;;55.42;26.92;;;;;;;;;;4992079;28;20022;-78
2024/01/20 11:47:36;;;;;;;51.40;25.05;;;;;;;;;;4980582;28;20062;-78
2024/01/20 11:50:04;;;;;;;50.65;27.48;;;;;;;;;;4982441;28;20169;-78
2024/01/20 11:52:31;;;;;;;52.30;25.33;;;;;;;;;;4995190;28;20121;-78
2024/01/20 11:54:59;;;;;;;53.00;27.95;;;;;;;;;;4989259;28;20034;-77
2024/01/20 11:57:32;;;;;;;54.28;26.98;;;;;;;;;;4985942;28;20073;-76
2024/01/20 11:59:59;;;;;;;53.63;25.92;;;;;;;;;;4983506;28;20036;-76
2024/01/20 12:02:27;;;;;;;53.65;26.92;;;;;;;;;;4973604;28;20023;-77
2024/01/20 12:04:54;;;;;;;51.25;26.35;;;;;;;;;;4982551;28;20069;-77
2024/01/20 12:07:21;;;;;;;57.13;26.33;;;;;;;;;;4969520;28;20042;-77
2024/01/20 12:09:47;;;;;;;48.55;25.10;;;;;;;;;;4982362;28;20114;-77
2024/01/20 12:12:14;;;;;;;48.20;25.67;;;;;;;;;;4981686;28;20434;-78
2024/01/20 12:14:44;;;;;;;52.50;26.33;;;;;;;;;;4980804;28;20097;-77
2024/01/20 12:17:10;;;;;;;50.72;25.58;;;;;;;;;;4977872;28;20117;-76
2024/01/20 12:19:38;;;;;;;51.58;24.88;;;;;;;;;;4978728;28;20073;-77
2024/01/20 12:22:06;;;;;;;48.70;25.23;;;;;;;;;;4981361;28;20440;-77
2024/01/20 12:24:33;;;;;;;50.45;25.80;;;;;;;;;;5002359;28;20058;-77
2024/01/20 12:27:00;;;;;;;50.35;26.15;;;;;;;;;;4991980;28;20097;-77
2024/01/20 12:29:26;;;;;;;46.75;25.25;;;;;;;;;;4975295;28;20114;-77
2024/01/20 12:31:53;;;;;;;50.25;25.50;;;;;;;;;;5004861;28;20070;-77
2024/01/20 12:34:20;;;;;;;43.35;23.45;;;;;;;;;;4982488;28;20145;-76
2024/01/20 12:36:46;;;;;;;44.92;24.38;;;;;;;;;;5002293;28;20035;-78
2024/01/20 12:39:13;;;;;;;42.78;23.00;;;;;;;;;;4971860;28;20301;-77
2024/01/20 12:41:39;;;;;;;43.92;24.35;;;;;;;;;;4977142;28;20027;-76
2024/01/20 12:44:05;;;;;;;49.50;26.48;;;;;;;;;;4978898;28;20130;-77
2024/01/20 12:46:31;;;;;;;46.20;23.00;;;;;;;;;;5018181;28;20039;-79
2024/01/20 12:48:58;;;;;;;45.80;24.42;;;;;;;;;;4999457;28;20050;-77
2024/01/20 12:51:24;;;;;;;43.47;23.95;;;;;;;;;;4976290;28;20034;-77
2024/01/20 12:53:50;;;;;;;46.15;23.83;;;;;;;;;;4983239;28;20042;-77
2024/01/20 12:56:16;;;;;;;42.72;22.77;;;;;;;;;;4982051;28;20042;-79
2024/01/20 12:58:43;;;;;;;43.28;22.02;;;;;;;;;;5014678;28;20322;-77
2024/01/20 13:01:09;;;;;;;42.83;23.75;;;;;;;;;;4990850;28;20054;-76
2024/01/20 13:03:35;;;;;;;44.65;23.98;;;;;;;;;;4985571;28;20043;-77
2024/01/20 13:06:01;;;;;;;40.45;22.35;;;;;;;;;;4989324;28;20041;-78
2024/01/20 13:08:27;;;;;;;37.53;20.52;;;;;;;;;;4986815;28;20027;-79
2024/01/20 13:10:54;;;;;;;38.17;22.33;;;;;;;;;;4991928;28;20546;-76
2024/01/20 13:13:21;;;;;;;37.60;21.65;;;;;;;;;;4975961;28;20043;-77
2024/01/20 13:15:47;;;;;;;33.92;20.00;;;;;;;;;;4980491;28;20027;-78
2024/01/20 13:18:13;;;;;;;33.60;19.58;;;;;;;;;;4985798;28;20054;-77
2024/01/20 13:20:39;;;;;;;33.97;19.90;;;;;;;;;;4973169;28;20038;-77
2024/01/20 13:23:06;;;;;;;34.50;20.05;;;;;;;;;;5009150;28;20498;-77
2024/01/20 13:25:32;;;;;;;31.85;18.08;;;;;;;;;;4983444;28;20153;-76
2024/01/20 13:27:59;;;;;;;33.08;18.98;;;;;;;;;;4981779;28;20092;-77
2024/01/20 13:30:25;;;;;;;32.22;17.98;;;;;;;;;;4985339;28;20042;-78
2024/01/20 13:32:51;;;;;;;31.85;17.60;;;;;;;;;;4978682;28;20046;-77
2024/01/20 13:35:17;;;;;;;29.83;17.65;;;;;;;;;;4975735;28;20042;-77
2024/01/20 13:37:43;;;;;;;33.83;18.02;;;;;;;;;;4974574;28;20039;-78
2024/01/20 13:40:09;;;;;;;31.13;18.55;;;;;;;;;;5008703;28;20035;-76
2024/01/20 13:42:36;;;;;;;29.88;17.55;;;;;;;;;;4988866;28;20069;-76
2024/01/20 13:45:03;;;;;;;32.22;17.58;;;;;;;;;;4988721;28;20137;-78
2024/01/20 13:47:29;;;;;;;30.27;17.33;;;;;;;;;;4988265;28;20488;-76
2024/01/20 13:49:55;;;;;;;30.08;17.50;;;;;;;;;;4989154;28;20084;-77
2024/01/20 13:52:22;;;;;;;34.95;17.65;;;;;;;;;;4989282;28;20041;-77
2024/01/20 13:54:48;;;;;;;30.90;17.17;;;;;;;;;;4983057;28;20801;-78
2024/01/20 13:57:14;;;;;;;30.83;16.75;;;;;;;;;;4980365;28;20034;-77
2024/01/20 13:59:40;;;;;;;25.67;15.65;;;;;;;;;;4981091;28;20071;-77
2024/01/20 14:02:07;;;;;;;30.60;17.65;;;;;;;;;;4989745;28;20088;-77
2024/01/20 14:04:33;;;;;;;32.22;16.60;;;;;;;;;;4982367;28;20092;-77
2024/01/20 14:07:00;;;;;;;27.17;16.02;;;;;;;;;;4989717;28;20507;-78
2024/01/20 14:09:29;;;;;;;29.05;16.85;;;;;;;;;;4984870;28;20034;-76